Time;durP1;ratioP1;P1;durP2;ratioP2;P2;SDS_P1;SDS_P2;PMS_P1;PMS_P2;Temp;Humidity;BMP_temperature;BMP_pressure;BME280_temperature;BME280_humidity;BME280_pressure;Samples;Min_cycle;Max_cycle;Signal;HPM_P1;HPM_P2
2022/06/08 00:02:33;;;;;;;0.87;0.87;;;;;;;;;;4946226;28;20218;-61
2022/06/08 00:05:20;;;;;;;0.70;0.70;;;;;;;;;;4942697;28;20215;-62
2022/06/08 00:08:08;;;;;;;0.60;0.60;;;;;;;;;;4939962;28;20364;-61
2022/06/08 00:10:55;;;;;;;1.73;0.90;;;;;;;;;;4947153;28;20227;-61
2022/06/08 00:13:42;;;;;;;0.90;0.73;;;;;;;;;;4946019;29;20240;-61
2022/06/08 00:16:31;;;;;;;0.93;0.83;;;;;;;;;;4942357;29;20222;-61
2022/06/08 00:19:18;;;;;;;0.97;0.90;;;;;;;;;;4943546;28;20205;-62
2022/06/08 00:22:06;;;;;;;0.80;0.80;;;;;;;;;;4944923;28;20215;-61
2022/06/08 00:24:53;;;;;;;0.70;0.70;;;;;;;;;;4942369;29;20199;-61
2022/06/08 00:27:40;;;;;;;1.17;1.10;;;;;;;;;;4944014;28;20319;-62
2022/06/08 00:30:27;;;;;;;0.87;0.87;;;;;;;;;;4942551;28;20343;-62
2022/06/08 00:33:16;;;;;;;0.80;0.80;;;;;;;;;;4945448;28;20230;-61
2022/06/08 00:36:04;;;;;;;0.83;0.60;;;;;;;;;;4938915;29;20211;-61
2022/06/08 00:38:51;;;;;;;0.80;0.80;;;;;;;;;;4942503;29;20234;-61
2022/06/08 00:41:43;;;;;;;0.80;0.80;;;;;;;;;;4944089;28;20597;-61
2022/06/08 00:44:34;;;;;;;0.80;0.80;;;;;;;;;;4941387;28;20213;-61
2022/06/08 00:47:27;;;;;;;0.73;0.73;;;;;;;;;;4942706;28;20214;-61
2022/06/08 00:50:19;;;;;;;1.00;1.00;;;;;;;;;;4945359;28;20211;-61
2022/06/08 00:53:08;;;;;;;1.00;1.00;;;;;;;;;;4942013;29;20598;-61
2022/06/08 00:55:57;;;;;;;1.03;0.93;;;;;;;;;;4939977;28;20219;-62
2022/06/08 00:58:45;;;;;;;0.87;0.87;;;;;;;;;;4943652;28;20227;-61
2022/06/08 01:01:33;;;;;;;0.97;0.97;;;;;;;;;;4941242;28;20227;-61
2022/06/08 01:04:21;;;;;;;1.27;0.87;;;;;;;;;;4943949;28;20581;-61
2022/06/08 01:07:17;;;;;;;0.90;0.90;;;;;;;;;;4941153;28;20204;-61
2022/06/08 01:10:05;;;;;;;0.80;0.80;;;;;;;;;;4940441;28;20226;-61
2022/06/08 01:12:52;;;;;;;1.43;0.60;;;;;;;;;;4946018;28;20730;-61
2022/06/08 01:15:42;;;;;;;0.63;0.63;;;;;;;;;;4939609;28;20211;-61
2022/06/08 01:18:29;;;;;;;1.13;0.87;;;;;;;;;;4941229;28;20224;-61
2022/06/08 01:21:56;;;;;;;0.80;0.80;;;;;;;;;;4942132;28;20212;-61
2022/06/08 01:24:47;;;;;;;0.80;0.80;;;;;;;;;;4939797;28;20212;-61
2022/06/08 01:27:47;;;;;;;0.93;0.80;;;;;;;;;;4939630;29;20773;-61
2022/06/08 01:30:44;;;;;;;0.87;0.87;;;;;;;;;;4939379;28;20207;-61
2022/06/08 01:33:49;;;;;;;0.80;0.80;;;;;;;;;;4947734;28;20212;-61
2022/06/08 01:37:03;;;;;;;0.87;0.87;;;;;;;;;;4938888;28;20576;-62
2022/06/08 01:40:06;;;;;;;0.70;0.70;;;;;;;;;;4943856;29;20214;-61
2022/06/08 01:43:07;;;;;;;0.60;0.60;;;;;;;;;;4939222;28;20226;-62
2022/06/08 01:46:12;;;;;;;0.77;0.77;;;;;;;;;;4939782;29;20215;-62
2022/06/08 01:49:21;;;;;;;0.83;0.70;;;;;;;;;;4939438;29;20782;-61
2022/06/08 01:52:21;;;;;;;0.60;0.60;;;;;;;;;;4942195;28;20219;-62
2022/06/08 01:55:12;;;;;;;0.93;0.93;;;;;;;;;;4941007;28;20203;-61
2022/06/08 01:58:05;;;;;;;0.70;0.70;;;;;;;;;;4937818;28;20232;-61
2022/06/08 02:00:59;;;;;;;0.87;0.87;;;;;;;;;;4943213;29;20235;-61
2022/06/08 02:03:58;;;;;;;0.70;0.70;;;;;;;;;;4948093;28;20222;-61
2022/06/08 02:06:51;;;;;;;0.77;0.77;;;;;;;;;;4939634;28;20341;-61
2022/06/08 02:09:45;;;;;;;0.83;0.63;;;;;;;;;;4940059;28;20295;-61
2022/06/08 02:12:35;;;;;;;0.70;0.70;;;;;;;;;;4936450;28;20234;-61
2022/06/08 02:15:26;;;;;;;0.87;0.87;;;;;;;;;;4940435;28;20219;-61
2022/06/08 02:18:20;;;;;;;0.90;0.90;;;;;;;;;;4941949;28;20270;-62
2022/06/08 02:21:11;;;;;;;0.77;0.77;;;;;;;;;;4939264;28;20208;-61
2022/06/08 02:24:02;;;;;;;1.10;1.00;;;;;;;;;;4937139;28;20298;-61
2022/06/08 02:26:55;;;;;;;0.67;0.67;;;;;;;;;;4938219;28;20200;-61
2022/06/08 02:29:46;;;;;;;1.10;1.00;;;;;;;;;;4945095;29;20206;-62
2022/06/08 02:35:45;;;;;;;0.93;0.93;;;;;;;;;;4945011;29;20283;-61
2022/06/08 02:38:36;;;;;;;0.87;0.87;;;;;;;;;;4936673;28;20227;-61
2022/06/08 02:41:25;;;;;;;0.90;0.90;;;;;;;;;;4942139;29;20661;-61
2022/06/08 02:44:18;;;;;;;0.90;0.90;;;;;;;;;;4947910;28;20578;-61
2022/06/08 02:47:14;;;;;;;1.00;0.97;;;;;;;;;;4939096;29;20216;-61
2022/06/08 02:50:02;;;;;;;0.90;0.90;;;;;;;;;;4945557;28;20212;-61
2022/06/08 02:52:50;;;;;;;0.90;0.90;;;;;;;;;;4940278;29;20588;-61
2022/06/08 02:55:46;;;;;;;1.03;0.80;;;;;;;;;;4940572;28;20664;-62
2022/06/08 02:58:39;;;;;;;0.90;0.90;;;;;;;;;;4944250;29;20235;-61
2022/06/08 03:01:35;;;;;;;0.97;0.97;;;;;;;;;;4938292;29;20267;-61
2022/06/08 03:04:27;;;;;;;0.90;0.80;;;;;;;;;;4948032;28;20228;-62
2022/06/08 03:07:18;;;;;;;1.63;1.00;;;;;;;;;;4941360;29;20224;-61
2022/06/08 03:10:08;;;;;;;1.00;1.00;;;;;;;;;;4943045;28;20230;-61
2022/06/08 03:13:01;;;;;;;0.93;0.93;;;;;;;;;;4940198;29;20622;-61
2022/06/08 03:15:53;;;;;;;1.40;0.90;;;;;;;;;;4940325;28;20210;-61
2022/06/08 03:18:41;;;;;;;0.77;0.77;;;;;;;;;;4941005;29;20235;-61
2022/06/08 03:21:29;;;;;;;1.20;1.10;;;;;;;;;;4939831;29;20475;-61
2022/06/08 03:24:18;;;;;;;1.07;0.90;;;;;;;;;;4936582;29;20222;-61
2022/06/08 03:27:08;;;;;;;1.30;1.00;;;;;;;;;;4943780;28;20684;-61
2022/06/08 03:29:55;;;;;;;0.70;0.70;;;;;;;;;;4944339;28;20577;-61
2022/06/08 03:32:43;;;;;;;0.80;0.80;;;;;;;;;;4948003;28;20219;-62
2022/06/08 03:35:31;;;;;;;1.00;1.00;;;;;;;;;;4942991;28;20210;-61
2022/06/08 03:38:19;;;;;;;0.70;0.70;;;;;;;;;;4946251;28;20243;-62
2022/06/08 03:41:06;;;;;;;0.60;0.60;;;;;;;;;;4943936;28;20222;-61
2022/06/08 03:43:53;;;;;;;1.60;0.73;;;;;;;;;;4945951;28;20216;-61
2022/06/08 03:46:50;;;;;;;0.70;0.70;;;;;;;;;;4945194;28;20244;-61
2022/06/08 03:49:38;;;;;;;0.80;0.80;;;;;;;;;;4943708;28;20211;-61
2022/06/08 03:52:29;;;;;;;0.70;0.70;;;;;;;;;;4939945;28;20652;-61
2022/06/08 03:55:20;;;;;;;0.80;0.80;;;;;;;;;;4941786;28;20208;-61
2022/06/08 03:58:08;;;;;;;1.00;1.00;;;;;;;;;;4941337;29;20235;-61
2022/06/08 04:00:56;;;;;;;1.00;1.00;;;;;;;;;;4944542;28;20237;-62
2022/06/08 04:03:43;;;;;;;0.80;0.77;;;;;;;;;;4952802;28;20216;-61
2022/06/08 04:06:30;;;;;;;0.77;0.73;;;;;;;;;;4939414;28;20222;-61
2022/06/08 04:09:19;;;;;;;0.70;0.70;;;;;;;;;;4939836;28;20209;-61
2022/06/08 04:12:07;;;;;;;0.60;0.60;;;;;;;;;;4944299;28;20303;-61
2022/06/08 04:14:54;;;;;;;0.90;0.90;;;;;;;;;;4941215;28;20216;-61
2022/06/08 04:17:41;;;;;;;0.87;0.70;;;;;;;;;;4943579;29;20205;-61
2022/06/08 04:20:28;;;;;;;0.80;0.80;;;;;;;;;;4944351;28;20239;-61
2022/06/08 04:23:18;;;;;;;0.70;0.70;;;;;;;;;;4939477;28;20204;-61
2022/06/08 04:26:07;;;;;;;1.37;0.77;;;;;;;;;;4941096;28;20233;-61
2022/06/08 04:28:54;;;;;;;0.70;0.70;;;;;;;;;;4944627;28;20214;-61
2022/06/08 04:31:42;;;;;;;0.90;0.90;;;;;;;;;;4942989;28;20212;-62
2022/06/08 04:34:29;;;;;;;0.50;0.50;;;;;;;;;;4942195;28;20205;-61
2022/06/08 04:37:17;;;;;;;0.80;0.73;;;;;;;;;;4948023;28;20211;-61
2022/06/08 04:40:05;;;;;;;0.70;0.70;;;;;;;;;;4939293;28;20246;-61
2022/06/08 04:42:53;;;;;;;0.60;0.60;;;;;;;;;;4945716;28;20220;-61
2022/06/08 04:45:41;;;;;;;0.57;0.57;;;;;;;;;;4941032;28;20211;-62
2022/06/08 04:48:28;;;;;;;0.83;0.83;;;;;;;;;;4941509;28;20212;-61
2022/06/08 04:51:17;;;;;;;0.70;0.70;;;;;;;;;;4943158;28;20347;-61
2022/06/08 04:54:04;;;;;;;1.03;0.93;;;;;;;;;;4944165;28;20214;-61
2022/06/08 04:56:51;;;;;;;0.60;0.60;;;;;;;;;;4944025;28;20677;-61
2022/06/08 04:59:40;;;;;;;0.80;0.80;;;;;;;;;;4937217;29;20604;-62
2022/06/08 05:02:47;;;;;;;0.77;0.77;;;;;;;;;;4941741;28;20203;-61
2022/06/08 05:05:37;;;;;;;0.60;0.60;;;;;;;;;;4939373;29;20223;-61
2022/06/08 05:08:26;;;;;;;1.00;0.90;;;;;;;;;;4947338;28;20204;-61
2022/06/08 05:11:14;;;;;;;1.07;0.70;;;;;;;;;;4940633;28;20220;-61
2022/06/08 05:14:01;;;;;;;0.70;0.70;;;;;;;;;;4944189;28;20813;-61
2022/06/08 05:16:49;;;;;;;0.70;0.70;;;;;;;;;;4939238;29;20291;-61
2022/06/08 05:19:36;;;;;;;0.77;0.77;;;;;;;;;;4946148;28;20487;-61
2022/06/08 05:22:24;;;;;;;1.33;0.70;;;;;;;;;;4940061;28;20219;-61
2022/06/08 05:25:14;;;;;;;0.53;0.53;;;;;;;;;;4943202;29;20216;-61
2022/06/08 05:28:02;;;;;;;0.63;0.63;;;;;;;;;;4941764;28;20204;-62
2022/06/08 05:30:49;;;;;;;0.70;0.70;;;;;;;;;;4939208;28;20669;-62
2022/06/08 05:33:38;;;;;;;0.83;0.70;;;;;;;;;;4946162;28;20684;-62
2022/06/08 05:36:27;;;;;;;0.70;0.70;;;;;;;;;;4940473;28;20285;-62
2022/06/08 05:39:14;;;;;;;0.60;0.60;;;;;;;;;;4941703;28;20236;-61
2022/06/08 05:42:01;;;;;;;1.03;0.97;;;;;;;;;;4936532;29;20226;-62
2022/06/08 05:44:49;;;;;;;0.70;0.70;;;;;;;;;;4947363;28;20711;-61
2022/06/08 05:47:36;;;;;;;0.70;0.70;;;;;;;;;;4938920;28;20207;-61
2022/06/08 05:50:26;;;;;;;1.03;0.90;;;;;;;;;;4941203;28;20208;-61
2022/06/08 05:53:14;;;;;;;0.70;0.70;;;;;;;;;;4942896;29;20208;-61
2022/06/08 05:56:02;;;;;;;0.93;0.90;;;;;;;;;;4941726;28;20209;-62
2022/06/08 05:58:49;;;;;;;0.83;0.80;;;;;;;;;;4942262;29;20238;-61
2022/06/08 06:01:36;;;;;;;0.90;0.90;;;;;;;;;;4935202;29;20239;-61
2022/06/08 06:04:23;;;;;;;0.80;0.80;;;;;;;;;;4944713;28;20678;-61
2022/06/08 06:07:13;;;;;;;1.17;0.90;;;;;;;;;;4940039;28;20224;-62
2022/06/08 06:10:03;;;;;;;0.80;0.80;;;;;;;;;;4941048;29;20216;-62
2022/06/08 06:12:51;;;;;;;0.53;0.53;;;;;;;;;;4941714;28;20262;-62
2022/06/08 06:15:38;;;;;;;0.80;0.80;;;;;;;;;;4947033;28;20215;-62
2022/06/08 06:18:25;;;;;;;1.07;0.87;;;;;;;;;;4947842;28;20208;-62
2022/06/08 06:21:16;;;;;;;1.00;0.73;;;;;;;;;;4946172;28;20662;-62
2022/06/08 06:24:06;;;;;;;0.80;0.80;;;;;;;;;;4945647;28;20215;-62
2022/06/08 06:26:53;;;;;;;0.60;0.60;;;;;;;;;;4945909;29;20217;-62
2022/06/08 06:29:41;;;;;;;0.70;0.70;;;;;;;;;;4945008;29;20205;-62
2022/06/08 06:32:30;;;;;;;0.70;0.70;;;;;;;;;;4943959;29;20219;-62
2022/06/08 06:35:21;;;;;;;1.10;0.93;;;;;;;;;;4944505;28;20220;-61
2022/06/08 06:38:09;;;;;;;0.80;0.80;;;;;;;;;;4944827;28;20208;-62
2022/06/08 06:40:57;;;;;;;1.03;0.87;;;;;;;;;;4940243;28;20682;-62
2022/06/08 06:43:44;;;;;;;0.70;0.70;;;;;;;;;;4942388;29;20212;-62
2022/06/08 06:46:32;;;;;;;0.70;0.70;;;;;;;;;;4944146;29;20705;-62
2022/06/08 06:49:20;;;;;;;0.90;0.90;;;;;;;;;;4946252;28;20217;-61
2022/06/08 06:52:09;;;;;;;0.73;0.73;;;;;;;;;;4939519;28;20207;-62
2022/06/08 06:54:57;;;;;;;0.70;0.70;;;;;;;;;;4945195;28;20209;-62
2022/06/08 06:57:45;;;;;;;0.90;0.90;;;;;;;;;;4947698;28;20293;-62
2022/06/08 07:00:33;;;;;;;1.00;1.00;;;;;;;;;;4945313;29;20238;-61
2022/06/08 07:03:20;;;;;;;0.60;0.60;;;;;;;;;;4949302;29;20337;-61
2022/06/08 07:06:07;;;;;;;0.70;0.70;;;;;;;;;;4945873;28;20733;-61
2022/06/08 07:08:54;;;;;;;0.67;0.63;;;;;;;;;;4946025;28;20215;-61
2022/06/08 07:11:42;;;;;;;0.80;0.80;;;;;;;;;;4944199;28;20379;-60
2022/06/08 07:14:31;;;;;;;0.80;0.80;;;;;;;;;;4945179;29;20341;-61
2022/06/08 07:17:18;;;;;;;0.80;0.80;;;;;;;;;;4945450;29;20217;-61
2022/06/08 07:20:07;;;;;;;0.77;0.77;;;;;;;;;;4948916;29;20605;-61
2022/06/08 07:22:54;;;;;;;0.90;0.90;;;;;;;;;;4946329;28;20212;-61
2022/06/08 07:25:41;;;;;;;1.37;0.80;;;;;;;;;;4940138;29;20207;-61
2022/06/08 07:28:29;;;;;;;0.87;0.80;;;;;;;;;;4942360;29;20694;-61
2022/06/08 07:31:17;;;;;;;0.77;0.77;;;;;;;;;;4945562;29;20301;-61
2022/06/08 07:34:05;;;;;;;0.80;0.80;;;;;;;;;;4945628;29;21111;-62
2022/06/08 07:36:52;;;;;;;0.77;0.77;;;;;;;;;;4945990;29;20219;-61
2022/06/08 07:39:39;;;;;;;0.73;0.73;;;;;;;;;;4945774;28;20229;-61
2022/06/08 07:42:26;;;;;;;1.27;1.00;;;;;;;;;;4951324;29;20214;-62
2022/06/08 07:45:14;;;;;;;0.73;0.73;;;;;;;;;;4945524;28;20341;-62
2022/06/08 07:51:06;;;;;;;0.97;0.97;;;;;;;;;;4946561;28;20207;-62
2022/06/08 07:53:54;;;;;;;0.83;0.83;;;;;;;;;;4949521;28;20219;-62
2022/06/08 07:56:41;;;;;;;0.83;0.83;;;;;;;;;;4948681;29;20208;-62
2022/06/08 07:59:31;;;;;;;1.50;1.00;;;;;;;;;;4944101;29;20241;-63
2022/06/08 08:02:18;;;;;;;0.80;0.80;;;;;;;;;;4950065;28;20259;-62
2022/06/08 08:05:09;;;;;;;0.80;0.80;;;;;;;;;;4944223;28;20218;-63
2022/06/08 08:07:56;;;;;;;0.90;0.90;;;;;;;;;;4948652;28;20204;-62
2022/06/08 08:10:44;;;;;;;1.10;1.10;;;;;;;;;;4948291;28;20284;-63
2022/06/08 08:13:31;;;;;;;0.70;0.70;;;;;;;;;;4944525;28;20228;-62
2022/06/08 08:16:18;;;;;;;1.03;1.03;;;;;;;;;;4945985;28;20219;-61
2022/06/08 08:19:05;;;;;;;0.90;0.90;;;;;;;;;;4945398;28;20220;-61
2022/06/08 08:21:56;;;;;;;0.90;0.90;;;;;;;;;;4944461;29;20214;-61
2022/06/08 08:24:43;;;;;;;0.80;0.80;;;;;;;;;;4940182;29;20724;-60
2022/06/08 08:27:30;;;;;;;1.00;1.00;;;;;;;;;;4937215;29;20209;-61
2022/06/08 08:30:22;;;;;;;0.90;0.90;;;;;;;;;;4944968;28;20203;-61
2022/06/08 08:33:10;;;;;;;0.73;0.73;;;;;;;;;;4945376;28;20217;-61
2022/06/08 08:35:57;;;;;;;1.00;1.00;;;;;;;;;;4943215;29;20439;-61
2022/06/08 08:38:46;;;;;;;1.03;1.00;;;;;;;;;;4943663;29;20209;-61
2022/06/08 08:44:43;;;;;;;0.90;0.90;;;;;;;;;;4947150;29;20196;-62
2022/06/08 08:47:41;;;;;;;1.00;0.97;;;;;;;;;;4946596;28;20586;-62
2022/06/08 08:50:35;;;;;;;0.93;0.93;;;;;;;;;;4947814;28;20202;-61
2022/06/08 08:53:26;;;;;;;1.00;0.90;;;;;;;;;;4948097;29;20211;-61
2022/06/08 08:56:19;;;;;;;1.30;1.20;;;;;;;;;;4943393;29;20758;-62
2022/06/08 08:59:14;;;;;;;0.80;0.80;;;;;;;;;;4936309;28;20311;-62
2022/06/08 09:02:01;;;;;;;0.90;0.90;;;;;;;;;;4942226;28;20234;-62
2022/06/08 09:04:48;;;;;;;0.70;0.70;;;;;;;;;;4937601;28;20214;-62
2022/06/08 09:07:35;;;;;;;0.93;0.90;;;;;;;;;;4942223;28;20220;-61
2022/06/08 09:10:25;;;;;;;1.00;1.00;;;;;;;;;;4944812;28;20213;-62
2022/06/08 09:13:16;;;;;;;0.87;0.87;;;;;;;;;;4938886;28;20899;-62
2022/06/08 09:16:04;;;;;;;2.00;1.13;;;;;;;;;;4942238;28;20226;-63
2022/06/08 09:18:52;;;;;;;0.80;0.80;;;;;;;;;;4943712;28;20206;-61
2022/06/08 09:21:39;;;;;;;0.90;0.90;;;;;;;;;;4939290;29;20758;-61
2022/06/08 09:24:31;;;;;;;1.67;1.07;;;;;;;;;;4944191;29;20476;-61
2022/06/08 09:27:23;;;;;;;1.07;0.97;;;;;;;;;;4944614;28;20345;-61
2022/06/08 09:30:16;;;;;;;0.97;0.97;;;;;;;;;;4943284;28;20215;-62
2022/06/08 09:33:17;;;;;;;0.60;0.60;;;;;;;;;;4946170;28;20558;-61
2022/06/08 09:36:07;;;;;;;0.93;0.93;;;;;;;;;;4941406;29;20212;-61
2022/06/08 09:38:55;;;;;;;1.07;0.90;;;;;;;;;;4945293;29;20218;-62
2022/06/08 09:41:48;;;;;;;1.10;1.10;;;;;;;;;;4940210;28;20226;-76
2022/06/08 09:44:44;;;;;;;1.00;1.00;;;;;;;;;;4944524;28;20233;-61
2022/06/08 09:54:11;;;;;;;0.90;0.90;;;;;;;;;;4944100;28;20297;-61
2022/06/08 09:57:14;;;;;;;1.90;0.90;;;;;;;;;;4946037;28;20561;-62
2022/06/08 10:00:17;;;;;;;0.87;0.87;;;;;;;;;;4941806;28;20297;-61
2022/06/08 10:03:25;;;;;;;1.00;1.00;;;;;;;;;;4948155;28;20260;-61
2022/06/08 10:06:22;;;;;;;2.20;1.10;;;;;;;;;;4939780;29;20752;-62
2022/06/08 10:09:20;;;;;;;0.80;0.80;;;;;;;;;;4946794;29;20211;-62
2022/06/08 10:12:27;;;;;;;0.80;0.80;;;;;;;;;;4942174;28;20212;-61
2022/06/08 10:15:23;;;;;;;0.90;0.90;;;;;;;;;;4940485;28;20225;-61
2022/06/08 10:18:19;;;;;;;1.10;1.10;;;;;;;;;;4933965;29;20218;-62
2022/06/08 10:21:16;;;;;;;1.07;0.90;;;;;;;;;;4937444;29;20286;-62
2022/06/08 10:24:07;;;;;;;0.80;0.80;;;;;;;;;;4945946;28;20215;-62
2022/06/08 10:26:58;;;;;;;0.80;0.80;;;;;;;;;;4938030;28;20292;-61
2022/06/08 10:29:52;;;;;;;0.90;0.90;;;;;;;;;;4944541;29;20211;-62
2022/06/08 10:32:45;;;;;;;1.00;1.00;;;;;;;;;;4940226;28;20239;-61
2022/06/08 10:35:41;;;;;;;0.83;0.83;;;;;;;;;;4942997;29;20224;-61
2022/06/08 10:38:32;;;;;;;1.30;0.80;;;;;;;;;;4942763;28;20213;-61
2022/06/08 10:44:50;;;;;;;0.87;0.87;;;;;;;;;;4946427;28;20209;-61
2022/06/08 10:47:38;;;;;;;0.83;0.83;;;;;;;;;;4938619;29;20241;-62
2022/06/08 10:50:31;;;;;;;1.03;0.90;;;;;;;;;;4939300;29;20251;-61
2022/06/08 10:56:50;;;;;;;2.13;0.90;;;;;;;;;;4942440;29;20218;-61
2022/06/08 10:59:37;;;;;;;0.80;0.80;;;;;;;;;;4943701;28;20210;-61
2022/06/08 11:02:32;;;;;;;1.00;1.00;;;;;;;;;;4941686;28;20241;-61
2022/06/08 11:05:30;;;;;;;1.17;1.10;;;;;;;;;;4940773;28;20217;-61
2022/06/08 11:08:22;;;;;;;0.97;0.97;;;;;;;;;;4940485;28;20240;-61
2022/06/08 11:11:11;;;;;;;1.20;1.10;;;;;;;;;;4943516;28;20216;-61
2022/06/08 11:13:58;;;;;;;0.80;0.80;;;;;;;;;;4937895;29;20249;-61
2022/06/08 11:16:45;;;;;;;1.20;1.10;;;;;;;;;;4939125;28;20692;-61
2022/06/08 11:19:35;;;;;;;0.90;0.90;;;;;;;;;;4936774;28;20215;-61
2022/06/08 11:22:26;;;;;;;2.40;0.97;;;;;;;;;;4940247;28;20217;-61
2022/06/08 11:25:21;;;;;;;1.27;1.10;;;;;;;;;;4936337;29;20218;-61
2022/06/08 11:28:35;;;;;;;1.20;1.20;;;;;;;;;;4939203;29;20209;-62
2022/06/08 11:31:48;;;;;;;1.10;1.10;;;;;;;;;;4940622;28;20211;-61
2022/06/08 11:34:58;;;;;;;1.17;1.03;;;;;;;;;;4941435;28;20229;-61
2022/06/08 11:37:54;;;;;;;1.20;1.10;;;;;;;;;;4940331;29;20220;-60
2022/06/08 11:40:41;;;;;;;0.90;0.90;;;;;;;;;;4937805;29;20249;-61
2022/06/08 11:43:38;;;;;;;1.30;1.20;;;;;;;;;;4944291;28;20215;-61
2022/06/08 11:46:31;;;;;;;1.00;1.00;;;;;;;;;;4943354;28;20226;-61
2022/06/08 11:49:30;;;;;;;1.00;1.00;;;;;;;;;;4943220;29;20262;-61
2022/06/08 11:52:29;;;;;;;0.80;0.80;;;;;;;;;;4947804;28;20202;-61
2022/06/08 11:55:22;;;;;;;0.90;0.90;;;;;;;;;;4940588;28;20212;-61
2022/06/08 11:58:17;;;;;;;1.00;1.00;;;;;;;;;;4941938;29;20218;-61
2022/06/08 12:01:10;;;;;;;1.40;1.30;;;;;;;;;;4941594;29;20248;-61
2022/06/08 12:04:01;;;;;;;1.20;1.20;;;;;;;;;;4949561;28;20213;-61
2022/06/08 12:06:49;;;;;;;1.13;1.13;;;;;;;;;;4941951;29;20222;-61
2022/06/08 12:09:37;;;;;;;1.00;1.00;;;;;;;;;;4936430;29;20206;-61
2022/06/08 12:12:28;;;;;;;1.33;1.23;;;;;;;;;;4945174;28;20238;-62
2022/06/08 12:15:38;;;;;;;1.00;1.00;;;;;;;;;;4936922;28;20312;-61
2022/06/08 12:18:48;;;;;;;1.17;1.17;;;;;;;;;;4939399;29;20221;-61
2022/06/08 12:21:38;;;;;;;1.03;1.03;;;;;;;;;;4936068;29;20240;-62
2022/06/08 12:24:25;;;;;;;1.17;1.17;;;;;;;;;;4938728;29;20246;-61
2022/06/08 12:27:22;;;;;;;1.00;1.00;;;;;;;;;;4944331;28;20215;-61
2022/06/08 12:30:27;;;;;;;1.13;1.13;;;;;;;;;;4938902;28;20222;-60
2022/06/08 12:33:24;;;;;;;1.20;1.10;;;;;;;;;;4945173;28;20680;-61
2022/06/08 12:36:21;;;;;;;1.00;1.00;;;;;;;;;;4947985;28;20668;-61
2022/06/08 12:39:14;;;;;;;1.20;1.17;;;;;;;;;;4943440;28;20207;-61
2022/06/08 12:42:01;;;;;;;1.30;1.30;;;;;;;;;;4938966;28;20284;-61
2022/06/08 12:44:53;;;;;;;1.30;1.27;;;;;;;;;;4941476;29;20216;-61
2022/06/08 12:47:45;;;;;;;1.40;1.30;;;;;;;;;;4943493;28;20841;-61
2022/06/08 12:50:32;;;;;;;1.00;1.00;;;;;;;;;;4946200;28;20204;-61
2022/06/08 12:53:21;;;;;;;1.20;1.20;;;;;;;;;;4940399;28;20664;-60
2022/06/08 12:56:12;;;;;;;1.30;1.20;;;;;;;;;;4938231;28;20291;-63
2022/06/08 12:58:59;;;;;;;1.47;1.43;;;;;;;;;;4941361;28;20214;-61
2022/06/08 13:01:47;;;;;;;1.20;1.10;;;;;;;;;;4943913;29;20243;-63
2022/06/08 13:04:34;;;;;;;1.40;1.30;;;;;;;;;;4945115;28;20213;-61
2022/06/08 13:07:25;;;;;;;1.63;1.33;;;;;;;;;;4943846;28;20208;-62
2022/06/08 13:10:13;;;;;;;1.50;1.40;;;;;;;;;;4944446;29;20258;-61
2022/06/08 13:13:03;;;;;;;1.47;1.37;;;;;;;;;;4939384;28;20745;-61
2022/06/08 13:15:51;;;;;;;1.10;1.10;;;;;;;;;;4942858;28;20222;-61
2022/06/08 13:18:39;;;;;;;1.30;1.30;;;;;;;;;;4946446;28;20209;-61
2022/06/08 13:21:27;;;;;;;1.23;1.20;;;;;;;;;;4934365;29;20217;-61
2022/06/08 13:24:15;;;;;;;1.53;1.43;;;;;;;;;;4942286;28;20209;-61
2022/06/08 13:27:07;;;;;;;1.30;1.30;;;;;;;;;;4944061;29;20632;-62
2022/06/08 13:29:55;;;;;;;1.60;1.50;;;;;;;;;;4942707;29;20214;-61
2022/06/08 13:32:42;;;;;;;1.47;1.37;;;;;;;;;;4935885;28;20563;-61
2022/06/08 13:35:32;;;;;;;1.60;1.50;;;;;;;;;;4937783;29;20221;-61
2022/06/08 13:38:20;;;;;;;1.37;1.27;;;;;;;;;;4943829;28;20209;-60
2022/06/08 13:41:08;;;;;;;1.47;1.47;;;;;;;;;;4944670;29;20771;-61
2022/06/08 13:43:57;;;;;;;1.50;1.40;;;;;;;;;;4943696;29;20218;-61
2022/06/08 13:46:46;;;;;;;1.37;1.27;;;;;;;;;;4944146;29;20205;-61
2022/06/08 13:49:36;;;;;;;1.77;1.67;;;;;;;;;;4943811;28;20211;-61
2022/06/08 13:52:25;;;;;;;1.40;1.37;;;;;;;;;;4943350;28;20667;-61
2022/06/08 13:55:18;;;;;;;1.70;1.60;;;;;;;;;;4936470;29;20584;-61
2022/06/08 13:58:07;;;;;;;1.80;1.70;;;;;;;;;;4947570;28;20221;-61
2022/06/08 14:00:58;;;;;;;2.10;1.90;;;;;;;;;;4941503;28;20696;-61
2022/06/08 14:03:47;;;;;;;1.63;1.50;;;;;;;;;;4947447;28;20206;-61
2022/06/08 14:13:02;;;;;;;1.70;1.60;;;;;;;;;;4946283;28;20235;-61
2022/06/08 14:15:52;;;;;;;1.80;1.70;;;;;;;;;;4939809;29;20215;-62
2022/06/08 14:18:42;;;;;;;1.70;1.60;;;;;;;;;;4943016;29;20303;-62
2022/06/08 14:21:29;;;;;;;1.60;1.50;;;;;;;;;;4941797;29;20238;-61
2022/06/08 14:24:22;;;;;;;1.63;1.53;;;;;;;;;;4944011;28;20210;-61
2022/06/08 14:27:11;;;;;;;1.40;1.40;;;;;;;;;;4940856;29;20214;-62
2022/06/08 14:29:58;;;;;;;1.40;1.40;;;;;;;;;;4945766;28;20214;-62
2022/06/08 14:32:52;;;;;;;1.30;1.20;;;;;;;;;;4942262;28;20248;-62
2022/06/08 14:35:41;;;;;;;1.50;1.40;;;;;;;;;;4943691;28;20212;-60
2022/06/08 14:38:32;;;;;;;1.50;1.40;;;;;;;;;;4938684;28;20201;-62
2022/06/08 14:41:19;;;;;;;1.50;1.40;;;;;;;;;;4942275;28;20317;-61
2022/06/08 14:44:06;;;;;;;1.60;1.50;;;;;;;;;;4941615;28;20220;-61
2022/06/08 14:46:56;;;;;;;1.63;1.43;;;;;;;;;;4944162;28;20214;-62
2022/06/08 14:49:46;;;;;;;1.57;1.50;;;;;;;;;;4939989;29;20213;-61
2022/06/08 14:52:35;;;;;;;1.17;1.17;;;;;;;;;;4939457;29;20219;-61
2022/06/08 14:58:37;;;;;;;1.60;1.50;;;;;;;;;;4932223;29;20215;-71
2022/06/08 15:01:26;;;;;;;1.50;1.40;;;;;;;;;;4942879;29;20218;-62
2022/06/08 15:04:16;;;;;;;1.60;1.50;;;;;;;;;;4945670;28;20283;-62
2022/06/08 15:07:04;;;;;;;1.60;1.50;;;;;;;;;;4941964;29;20292;-62
2022/06/08 15:09:54;;;;;;;1.47;1.30;;;;;;;;;;4947608;28;20215;-61
2022/06/08 15:12:43;;;;;;;1.50;1.40;;;;;;;;;;4941448;28;20232;-62
2022/06/08 15:15:30;;;;;;;2.20;1.50;;;;;;;;;;4945108;28;20600;-64
2022/06/08 15:18:17;;;;;;;1.47;1.37;;;;;;;;;;4945194;28;20204;-62
2022/06/08 15:21:05;;;;;;;1.27;1.27;;;;;;;;;;4946049;28;20208;-77
2022/06/08 15:23:52;;;;;;;1.10;1.10;;;;;;;;;;4942057;28;20209;-62
2022/06/08 15:26:42;;;;;;;1.33;1.23;;;;;;;;;;4943497;28;20235;-62
2022/06/08 15:29:31;;;;;;;1.57;1.47;;;;;;;;;;4949382;28;20228;-62
2022/06/08 15:32:20;;;;;;;1.40;1.30;;;;;;;;;;4946302;28;20449;-63
2022/06/08 15:35:12;;;;;;;1.60;1.50;;;;;;;;;;4946005;29;20204;-61
2022/06/08 15:38:02;;;;;;;1.63;1.53;;;;;;;;;;4946351;29;20232;-62
2022/06/08 15:40:49;;;;;;;1.47;1.40;;;;;;;;;;4944639;29;20208;-62
2022/06/08 15:43:38;;;;;;;1.57;1.47;;;;;;;;;;4947210;28;20207;-62
2022/06/08 15:46:25;;;;;;;1.40;1.40;;;;;;;;;;4942076;29;20220;-61
2022/06/08 15:49:16;;;;;;;1.57;1.43;;;;;;;;;;4948308;29;20211;-62
2022/06/08 15:52:07;;;;;;;1.50;1.40;;;;;;;;;;4945208;29;20545;-61
2022/06/08 15:54:58;;;;;;;1.40;1.40;;;;;;;;;;4942385;28;20227;-62
2022/06/08 15:57:46;;;;;;;1.70;1.60;;;;;;;;;;4945878;28;20590;-61
2022/06/08 16:00:34;;;;;;;1.20;1.20;;;;;;;;;;4943196;28;20329;-62
2022/06/08 16:03:22;;;;;;;1.40;1.40;;;;;;;;;;4947552;28;20457;-62
2022/06/08 16:06:09;;;;;;;1.73;1.50;;;;;;;;;;4946174;28;20563;-62
2022/06/08 16:08:56;;;;;;;1.30;1.30;;;;;;;;;;4945278;28;20211;-62
2022/06/08 16:11:44;;;;;;;1.20;1.20;;;;;;;;;;4943075;29;20206;-60
2022/06/08 16:14:31;;;;;;;1.60;1.50;;;;;;;;;;4940879;28;20725;-61
2022/06/08 16:17:20;;;;;;;1.47;1.37;;;;;;;;;;4945025;28;20219;-63
2022/06/08 16:20:11;;;;;;;1.47;1.47;;;;;;;;;;4939263;28;20226;-62
2022/06/08 16:22:58;;;;;;;1.60;1.50;;;;;;;;;;4940057;28;20230;-61
2022/06/08 16:25:45;;;;;;;3.43;1.50;;;;;;;;;;4942327;29;20668;-62
2022/06/08 16:28:32;;;;;;;1.53;1.43;;;;;;;;;;4945120;28;20196;-62
2022/06/08 16:31:19;;;;;;;1.70;1.60;;;;;;;;;;4945096;28;20211;-62
2022/06/08 16:34:08;;;;;;;1.63;1.53;;;;;;;;;;4943645;28;20215;-61
2022/06/08 16:36:55;;;;;;;1.63;1.53;;;;;;;;;;4946746;28;20212;-61
2022/06/08 16:39:42;;;;;;;1.90;1.50;;;;;;;;;;4946917;28;20584;-62
2022/06/08 16:42:30;;;;;;;1.50;1.40;;;;;;;;;;4941033;28;20235;-62
2022/06/08 16:45:18;;;;;;;1.30;1.30;;;;;;;;;;4938452;28;20528;-62
2022/06/08 16:48:06;;;;;;;2.00;1.23;;;;;;;;;;4945297;28;20740;-62
2022/06/08 16:50:56;;;;;;;1.30;1.30;;;;;;;;;;4947700;29;20225;-62
2022/06/08 16:53:46;;;;;;;0.97;0.97;;;;;;;;;;4942032;28;20212;-62
2022/06/08 16:59:38;;;;;;;1.30;1.20;;;;;;;;;;4939844;29;20773;-61
2022/06/08 17:02:25;;;;;;;1.60;1.60;;;;;;;;;;4939904;28;20230;-61
2022/06/08 17:05:14;;;;;;;1.33;1.30;;;;;;;;;;4942979;28;20562;-62
2022/06/08 17:08:04;;;;;;;1.40;1.40;;;;;;;;;;4946038;29;20208;-62
2022/06/08 17:13:55;;;;;;;1.60;1.50;;;;;;;;;;4945413;28;20621;-61
2022/06/08 17:16:43;;;;;;;1.20;1.20;;;;;;;;;;4941255;29;20695;-62
2022/06/08 17:19:31;;;;;;;1.40;1.40;;;;;;;;;;4937863;29;20203;-61
2022/06/08 17:22:18;;;;;;;1.40;1.30;;;;;;;;;;4938532;29;20239;-62
2022/06/08 17:25:09;;;;;;;1.60;1.50;;;;;;;;;;4943982;28;20208;-62
2022/06/08 17:27:56;;;;;;;1.10;1.10;;;;;;;;;;4943043;28;20215;-62
2022/06/08 17:30:44;;;;;;;1.50;1.40;;;;;;;;;;4937016;29;20199;-62
2022/06/08 17:33:31;;;;;;;1.30;1.30;;;;;;;;;;4950095;28;20208;-62
2022/06/08 17:36:19;;;;;;;2.30;1.40;;;;;;;;;;4946017;28;20211;-61
2022/06/08 17:39:08;;;;;;;1.13;1.13;;;;;;;;;;4942539;29;20228;-62
2022/06/08 17:44:59;;;;;;;1.33;1.23;;;;;;;;;;4945833;28;20251;-62